CPX667 Details

Departure: Daytona Beach International Airport (KDAB)
Arrival: Miami International Airport (KMIA) at N/A
Route: MYRA V3 MLB V437 PHK V267 BRIKL
Notes:


Current Weather Information
KDAB 191553Z 08007KT 10SM FEW030 SCT042 SCT120 BKN250 31/25 A3013 RMK AO2 SLP201 T03110250
KMIA 191553Z 10011KT 10SM SCT035 BKN200 32/22 A3007 RMK AO2 SLP184 T03170222